Haverfordwest, United Kingdom
Current Conditions -  °F | °C
As of 7:50 PM on Monday 26 Jan 2015 (Local Time) from EGOP Reporting Station
Few Clouds Few Clouds  
Wind Chill: 36°   Ceiling: Unl
Heat Index: 43°   Visibility: 6mi
Dew Point: 37°   Wind: 13mph
Humidity: 81%   Direction: 300°WNW
Pressure: 30.42"   Gusts: NA
Location:  51.8°N, 4.97°W
Report Text: EGOP 261950Z AUTO 30011KT 9999 // FEW037/// 06/03 Q1030
Loading
Personal Weather Stations






























Interactive Weather Map New forecast layout! Learn more

10-Day Weather Forecast

Advertisements
Track Severe Weather on mobile